Coniston, United Kingdom
Current Conditions -  °F | °C
As of 6:20 PM on Sunday 25 Jan 2015 (Local Time) from EGNH Reporting Station
Haze Haze  
Wind Chill: 39°   Ceiling: 100
Heat Index: 46°   Visibility: 1.5mi
Dew Point: 45°   Wind: 18mph
Humidity: 93%   Direction: 220°SW
Pressure: 30.21"   Gusts: NA
Location:  54.37°N, 3.05°W
Report Text: EGNH 251820Z 22016KT 2500 1000N BR OVC001 08/07 Q1023
Loading
Personal Weather Stations






























Interactive Weather Map New forecast layout! Learn more

10-Day Weather Forecast

Advertisements
Track Severe Weather on mobile